首页
METAR-TAF:

METAR-TAF

机场 :

Opa-Locka Airport

迈阿密, 佛罗里达州, 美国

纬度: 25-54-36N, 经度: 080-16-59W, 海拔: 3米

当前天气观测

该预报发布于1小时和3分钟前的11:53 UTC
风速3节,风向西转西北
温度 27°C
湿度 84%
气压 1016 hPa
能見度: 16.1公里
天空无云

METAR: KOPF 051153Z 30003KT 10SM CLR 27/24 A3001 RMK AO2 LTG DSNT NE AND E SLP162 70083 T02670239 10272 20261 53009

时间: 08:56 (12:56 UTC)

预报

该预报发布于1小时和19分钟前的11:37 UTC
预报有效从05日的 12点(UTC)到 06日的 12点(UTC)
风速6节,风向南转南东
能見度: 10公里
散云层高于2500英尺
多云层高于6000英尺
附近有阵雨
从 05日的 1500点(UTC)
风速8节,风向东南
能見度: 10公里
散云层高于2500英尺, 积雨云.
多云层高于4500英尺
附近有雷暴
从 06日的 0100点(UTC)
风速4节,风向多变
能見度: 10公里
散云层高于3500英尺
散云层高于25000英尺

TAF: KOPF 051137Z 0512/0612 15006KT P6SM VCSH SCT025 BKN060 FM051500 13008KT P6SM VCTS SCT025CB BKN045 FM060100 VRB04KT P6SM SCT035 SCT250

超过4000个机场的气象观测和天气预报(METAR&TAF报告)。

可查询的气象台以黄色和红色小点在地图上表示。

将鼠标移到小点上方,可查看气象台名称。

然后点击查看天气观测和预报。

如需切换地图:点击带黑十字的绿色按钮放大地图;点击带横线的绿色按钮缩小地图;或者点击绿色箭头查看邻近地区的地图。


METAR-TAF: